createdAt,value
2022-07-29T00:01:57.756Z,13.20
2022-07-29T00:04:27.316Z,13.30
2022-07-29T00:06:56.774Z,13.20
2022-07-29T00:09:26.764Z,13.20
2022-07-29T00:11:57.779Z,13.20
2022-07-29T00:14:29.792Z,13.20
2022-07-29T00:16:59.623Z,13.30
2022-07-29T00:19:29.823Z,13.30
2022-07-29T00:22:02.564Z,13.40
2022-07-29T00:24:32.678Z,13.40
2022-07-29T00:27:02.087Z,13.40
2022-07-29T00:29:34.421Z,13.40
2022-07-29T00:32:05.197Z,13.40
2022-07-29T00:34:51.872Z,13.40
2022-07-29T00:37:22.250Z,13.40
2022-07-29T00:39:51.801Z,13.40
2022-07-29T00:42:21.411Z,13.30
2022-07-29T00:44:52.975Z,13.40
2022-07-29T00:47:22.565Z,13.30
2022-07-29T00:49:52.608Z,13.20
2022-07-29T00:52:23.281Z,13.30
2022-07-29T00:54:53.571Z,13.20
2022-07-29T00:57:23.338Z,13.20
2022-07-29T00:59:54.208Z,13.10
2022-07-29T01:02:24.341Z,13.00
2022-07-29T01:04:54.065Z,13.10
2022-07-29T01:07:23.567Z,13.00
2022-07-29T01:09:54.835Z,12.90
2022-07-29T01:12:27.675Z,12.80
2022-07-29T01:14:59.565Z,12.70
2022-07-29T01:17:35.269Z,12.70
2022-07-29T01:20:11.787Z,12.70
2022-07-29T01:23:10.112Z,12.60
2022-07-29T01:26:00.336Z,12.60
2022-07-29T01:29:06.155Z,12.70
2022-07-29T01:31:58.455Z,12.70
2022-07-29T01:34:34.903Z,12.70
2022-07-29T01:37:11.250Z,12.70
2022-07-29T01:39:42.578Z,12.70
2022-07-29T01:42:18.231Z,12.70
2022-07-29T01:44:58.872Z,12.60
2022-07-29T01:47:30.884Z,12.60
2022-07-29T01:50:03.050Z,12.60
2022-07-29T01:52:37.414Z,12.50
2022-07-29T01:55:12.382Z,12.50
2022-07-29T01:57:45.738Z,12.40
2022-07-29T02:00:18.821Z,12.40
2022-07-29T02:02:51.101Z,12.40
2022-07-29T02:05:23.007Z,12.40
2022-07-29T02:07:55.091Z,12.30
2022-07-29T02:10:29.788Z,12.20
2022-07-29T02:13:01.120Z,12.20
2022-07-29T02:15:34.700Z,12.10
2022-07-29T02:18:09.074Z,12.10
2022-07-29T02:20:41.378Z,12.00
2022-07-29T02:23:14.428Z,12.10
2022-07-29T02:25:45.619Z,12.10
2022-07-29T02:28:17.216Z,12.10
2022-07-29T02:30:49.616Z,12.10
2022-07-29T02:33:22.407Z,12.20
2022-07-29T02:35:52.750Z,12.20
2022-07-29T02:38:42.385Z,12.20
2022-07-29T02:41:16.093Z,12.20
2022-07-29T02:43:49.558Z,12.30
2022-07-29T02:46:29.735Z,12.20
2022-07-29T02:49:02.184Z,12.10
2022-07-29T02:51:44.006Z,12.10
2022-07-29T02:54:22.106Z,12.10
2022-07-29T02:56:54.955Z,12.10
2022-07-29T02:59:30.271Z,12.10
2022-07-29T03:02:03.081Z,12.10
2022-07-29T03:04:35.871Z,12.10
2022-07-29T03:07:06.375Z,12.10
2022-07-29T03:09:36.983Z,12.20
2022-07-29T03:12:08.083Z,12.20
2022-07-29T03:14:39.741Z,12.20
2022-07-29T03:17:12.135Z,12.20
2022-07-29T03:19:42.630Z,12.20
2022-07-29T03:22:13.256Z,12.30
2022-07-29T03:24:43.254Z,12.30
2022-07-29T03:27:12.756Z,12.40
2022-07-29T03:29:49.681Z,12.40
2022-07-29T03:32:25.130Z,12.50
2022-07-29T03:34:55.162Z,12.60
2022-07-29T03:37:25.295Z,12.60
2022-07-29T03:39:57.632Z,12.70
2022-07-29T03:42:34.178Z,12.80
2022-07-29T03:45:08.821Z,12.90
2022-07-29T03:47:50.570Z,12.90
2022-07-29T03:50:22.757Z,13.00
2022-07-29T03:52:53.106Z,13.10
2022-07-29T03:55:22.803Z,13.20
2022-07-29T03:57:53.185Z,13.30
2022-07-29T04:00:24.341Z,13.40
2022-07-29T04:02:55.270Z,13.40
2022-07-29T04:05:25.367Z,13.50
2022-07-29T04:07:54.879Z,13.60
2022-07-29T04:10:31.562Z,13.80
2022-07-29T04:13:02.752Z,13.90
2022-07-29T04:15:32.568Z,14.00
2022-07-29T04:18:03.487Z,14.10
2022-07-29T04:20:33.652Z,14.10
2022-07-29T04:23:03.013Z,14.20
2022-07-29T04:25:32.551Z,14.50
2022-07-29T04:28:05.333Z,14.60
2022-07-29T04:30:35.342Z,14.70
2022-07-29T04:33:08.291Z,14.90
2022-07-29T04:35:50.229Z,15.00
2022-07-29T04:38:23.443Z,15.10
2022-07-29T04:40:52.849Z,15.30
2022-07-29T04:43:24.551Z,15.50
2022-07-29T04:45:54.402Z,15.60
2022-07-29T04:48:28.684Z,15.80
2022-07-29T04:50:59.174Z,16.00
2022-07-29T04:53:28.921Z,16.20
2022-07-29T04:55:58.679Z,16.20
2022-07-29T04:58:28.769Z,16.30
2022-07-29T05:00:58.274Z,16.40
2022-07-29T05:03:29.039Z,16.60
2022-07-29T05:05:59.134Z,16.70
2022-07-29T05:08:29.051Z,16.80
2022-07-29T05:10:58.512Z,16.90
2022-07-29T05:13:45.790Z,17.00
2022-07-29T05:16:16.712Z,17.00
2022-07-29T05:18:48.291Z,17.00
2022-07-29T05:21:17.647Z,16.90
2022-07-29T05:23:48.059Z,16.90
2022-07-29T05:26:17.494Z,17.00
2022-07-29T05:28:47.005Z,17.00
2022-07-29T05:31:17.107Z,16.90
2022-07-29T05:33:48.160Z,16.90
2022-07-29T05:36:17.865Z,17.00
2022-07-29T05:38:47.334Z,17.10
2022-07-29T05:41:16.803Z,17.20
2022-07-29T05:43:46.815Z,17.20
2022-07-29T05:46:16.600Z,17.30
2022-07-29T05:48:47.540Z,17.40
2022-07-29T05:51:17.558Z,17.40
2022-07-29T05:53:47.306Z,17.40
2022-07-29T05:56:17.095Z,17.50
2022-07-29T05:58:47.343Z,17.70
2022-07-29T06:01:16.729Z,17.70
2022-07-29T06:03:47.658Z,17.70
2022-07-29T06:06:18.039Z,17.80
2022-07-29T06:08:47.523Z,17.90
2022-07-29T06:11:16.870Z,18.00
2022-07-29T06:13:46.858Z,18.10
2022-07-29T06:16:16.350Z,18.10
2022-07-29T06:19:01.509Z,18.10
2022-07-29T06:21:30.914Z,18.00
2022-07-29T06:24:01.010Z,18.00
2022-07-29T06:26:32.579Z,18.20
2022-07-29T06:29:04.235Z,18.10
2022-07-29T06:31:33.767Z,18.10
2022-07-29T06:34:06.383Z,18.20
2022-07-29T06:36:39.835Z,18.30
2022-07-29T06:39:11.725Z,18.30
2022-07-29T06:41:42.878Z,18.40
2022-07-29T06:44:15.276Z,18.50
2022-07-29T06:46:48.390Z,18.70
2022-07-29T06:49:19.250Z,18.70
2022-07-29T06:51:49.568Z,18.80
2022-07-29T06:54:19.275Z,18.70
2022-07-29T06:56:49.011Z,18.60
2022-07-29T06:59:19.118Z,18.60
2022-07-29T07:01:49.508Z,18.70
2022-07-29T07:04:20.808Z,18.60
2022-07-29T07:06:51.525Z,18.70
2022-07-29T07:09:20.978Z,18.80
2022-07-29T07:11:50.530Z,19.00
2022-07-29T07:14:20.737Z,19.00
2022-07-29T07:16:50.762Z,18.90
2022-07-29T07:19:24.113Z,19.10
2022-07-29T07:21:53.521Z,19.10
2022-07-29T07:24:25.738Z,19.30
2022-07-29T07:26:55.207Z,19.20
2022-07-29T07:29:24.551Z,19.20
2022-07-29T07:31:58.948Z,19.30
2022-07-29T07:34:32.597Z,19.40
2022-07-29T07:37:02.726Z,19.60
2022-07-29T07:39:32.235Z,19.50
2022-07-29T07:42:01.723Z,19.40
2022-07-29T07:44:31.744Z,19.50
2022-07-29T07:47:08.628Z,19.70
2022-07-29T07:49:43.719Z,19.90
2022-07-29T07:52:14.585Z,20.10
2022-07-29T07:54:46.027Z,20.10
2022-07-29T07:57:15.706Z,20.20
2022-07-29T07:59:45.702Z,20.10
2022-07-29T08:02:15.531Z,20.20
2022-07-29T08:04:46.529Z,20.10
2022-07-29T08:07:16.898Z,20.00
2022-07-29T08:09:46.302Z,19.70
2022-07-29T08:12:15.750Z,19.70
2022-07-29T08:14:45.548Z,19.90
2022-07-29T08:17:14.910Z,19.90
2022-07-29T08:19:45.793Z,20.20
2022-07-29T08:22:15.981Z,20.40
2022-07-29T08:24:45.353Z,20.50
2022-07-29T08:27:40.574Z,20.50
2022-07-29T08:30:06.447Z,20.70
2022-07-29T08:33:03.322Z,20.80
2022-07-29T08:35:29.982Z,20.90
2022-07-29T08:38:01.462Z,20.80
2022-07-29T08:40:32.918Z,20.50
2022-07-29T08:43:07.400Z,20.80
2022-07-29T08:45:47.432Z,20.80
2022-07-29T08:48:18.989Z,21.00
2022-07-29T08:50:51.315Z,21.10
2022-07-29T08:53:21.334Z,21.40
2022-07-29T08:55:52.880Z,21.10
2022-07-29T08:58:25.005Z,21.20
2022-07-29T09:00:58.394Z,20.90
2022-07-29T09:03:32.436Z,20.90
2022-07-29T09:06:04.934Z,21.10
2022-07-29T09:08:35.371Z,21.20
2022-07-29T09:11:05.947Z,21.20
2022-07-29T09:13:35.734Z,21.30
2022-07-29T09:16:09.547Z,21.20
2022-07-29T09:18:40.494Z,21.20
2022-07-29T09:21:33.631Z,21.40
2022-07-29T09:24:05.291Z,21.60
2022-07-29T09:26:36.888Z,21.60
2022-07-29T09:29:17.072Z,21.40
2022-07-29T09:31:49.109Z,21.40
2022-07-29T09:34:19.929Z,21.50
2022-07-29T09:36:53.287Z,21.70
2022-07-29T09:39:33.525Z,21.90
2022-07-29T09:42:03.680Z,22.10
2022-07-29T09:44:45.451Z,22.00
2022-07-29T09:47:15.726Z,22.00
2022-07-29T09:49:56.637Z,21.80
2022-07-29T09:52:28.833Z,21.60
2022-07-29T09:55:07.988Z,21.50
2022-07-29T09:57:38.149Z,21.50
2022-07-29T10:00:09.898Z,21.80
2022-07-29T10:02:41.382Z,21.80
2022-07-29T10:05:20.861Z,22.00
2022-07-29T10:07:54.479Z,21.90
2022-07-29T10:10:32.253Z,22.00
2022-07-29T10:13:07.962Z,22.00
2022-07-29T10:15:45.026Z,22.00
2022-07-29T10:18:18.647Z,22.00
2022-07-29T10:20:48.121Z,22.00
2022-07-29T10:23:19.301Z,22.00
2022-07-29T10:25:49.035Z,22.20
2022-07-29T10:28:18.885Z,22.20
2022-07-29T10:30:50.025Z,22.20
2022-07-29T10:33:42.117Z,22.40
2022-07-29T10:36:29.913Z,22.30
2022-07-29T10:39:11.097Z,22.20
2022-07-29T10:42:04.986Z,22.40
2022-07-29T10:44:36.047Z,22.50
2022-07-29T10:47:06.905Z,22.50
2022-07-29T10:49:36.919Z,22.60
2022-07-29T10:52:11.746Z,22.60
2022-07-29T10:54:54.032Z,22.90
2022-07-29T10:57:53.528Z,23.10
2022-07-29T11:00:33.235Z,23.50
2022-07-29T11:03:04.742Z,24.70
2022-07-29T11:05:59.778Z,25.30
2022-07-29T11:08:30.130Z,25.90
2022-07-29T11:11:43.821Z,26.30
2022-07-29T11:14:20.153Z,26.90
2022-07-29T11:17:05.954Z,27.30
2022-07-29T11:19:40.194Z,27.70
2022-07-29T11:22:16.556Z,27.70
2022-07-29T11:24:50.175Z,28.00
2022-07-29T11:27:23.446Z,28.00
2022-07-29T11:30:03.356Z,28.30
2022-07-29T11:32:40.403Z,27.80
2022-07-29T11:35:37.200Z,27.90
2022-07-29T11:38:28.993Z,28.10
2022-07-29T11:41:24.554Z,28.30
2022-07-29T11:43:57.368Z,28.00
2022-07-29T11:46:50.188Z,27.70
2022-07-29T11:49:32.024Z,28.30
2022-07-29T11:52:04.222Z,28.60
2022-07-29T11:54:38.793Z,28.40
2022-07-29T11:57:36.675Z,28.50
2022-07-29T12:00:12.102Z,29.00
2022-07-29T12:02:48.769Z,29.10
2022-07-29T12:05:36.033Z,28.20
2022-07-29T12:08:20.357Z,28.00
2022-07-29T12:10:51.913Z,28.20
2022-07-29T12:13:37.607Z,28.40
2022-07-29T12:16:08.124Z,28.80
2022-07-29T12:18:39.162Z,29.10
2022-07-29T12:21:09.735Z,29.00
2022-07-29T12:23:54.750Z,28.90
2022-07-29T12:26:25.897Z,28.50
2022-07-29T12:28:55.870Z,28.30
2022-07-29T12:31:42.039Z,28.10
2022-07-29T12:34:17.567Z,28.10
2022-07-29T12:36:47.288Z,27.90
2022-07-29T12:39:19.597Z,27.50
2022-07-29T12:41:49.738Z,27.30
2022-07-29T12:44:19.875Z,26.90
2022-07-29T12:47:03.758Z,27.10
2022-07-29T12:49:38.275Z,27.10
2022-07-29T12:52:31.653Z,27.60
2022-07-29T12:55:02.119Z,28.10
2022-07-29T12:57:33.389Z,28.00
2022-07-29T13:00:12.330Z,28.30
2022-07-29T13:02:42.640Z,27.70
2022-07-29T13:05:15.184Z,27.50
2022-07-29T13:07:55.933Z,27.10
2022-07-29T13:10:27.552Z,27.00
2022-07-29T13:13:11.539Z,26.40
2022-07-29T13:15:43.421Z,26.60
2022-07-29T13:18:30.617Z,26.40
2022-07-29T13:21:14.347Z,25.90
2022-07-29T13:23:44.912Z,25.50
2022-07-29T13:26:15.141Z,25.30
2022-07-29T13:28:44.578Z,25.10
2022-07-29T13:31:14.452Z,24.90
2022-07-29T13:33:44.672Z,24.90
2022-07-29T13:36:15.575Z,24.90
2022-07-29T13:38:45.594Z,24.90
2022-07-29T13:41:15.264Z,25.00
2022-07-29T13:43:44.806Z,24.70
2022-07-29T13:46:14.547Z,24.30
2022-07-29T13:48:44.123Z,23.80
2022-07-29T13:51:15.090Z,23.80
2022-07-29T13:53:45.157Z,23.50
2022-07-29T13:56:14.533Z,23.20
2022-07-29T13:58:44.223Z,23.00
2022-07-29T14:01:14.035Z,22.80
2022-07-29T14:03:45.811Z,22.50
2022-07-29T14:06:17.574Z,22.60
2022-07-29T14:08:47.681Z,23.00
2022-07-29T14:11:17.657Z,23.50
2022-07-29T14:13:47.913Z,24.10
2022-07-29T14:16:18.995Z,24.70
2022-07-29T14:18:48.382Z,25.20
2022-07-29T14:21:19.821Z,25.70
2022-07-29T14:23:50.057Z,26.00
2022-07-29T14:26:21.578Z,26.30
2022-07-29T14:28:54.123Z,26.00
2022-07-29T14:31:23.695Z,25.70
2022-07-29T14:33:53.109Z,25.80
2022-07-29T14:36:24.909Z,25.60
2022-07-29T14:38:54.202Z,25.60
2022-07-29T14:41:24.217Z,25.70
2022-07-29T14:43:54.781Z,25.30
2022-07-29T14:46:24.209Z,24.80
2022-07-29T14:48:54.334Z,24.80
2022-07-29T14:51:25.313Z,24.80
2022-07-29T14:54:02.733Z,24.90
2022-07-29T14:56:36.946Z,25.20
2022-07-29T14:59:07.853Z,25.40
2022-07-29T15:01:37.235Z,26.00
2022-07-29T15:04:07.124Z,26.30
2022-07-29T15:06:39.232Z,26.20
2022-07-29T15:09:09.001Z,26.40
2022-07-29T15:11:39.126Z,26.40
2022-07-29T15:14:08.843Z,26.50
2022-07-29T15:16:39.305Z,26.50
2022-07-29T15:19:13.632Z,26.40
2022-07-29T15:21:48.645Z,26.40
2022-07-29T15:24:19.563Z,26.60
2022-07-29T15:26:49.493Z,26.40
2022-07-29T15:29:19.024Z,26.00
2022-07-29T15:31:48.730Z,26.00
2022-07-29T15:34:18.399Z,25.90
2022-07-29T15:36:52.426Z,25.50
2022-07-29T15:39:23.164Z,25.50
2022-07-29T15:41:53.318Z,25.50
2022-07-29T15:44:23.750Z,25.30
2022-07-29T15:47:05.944Z,25.50
2022-07-29T15:49:48.179Z,25.80
2022-07-29T15:52:24.985Z,26.10
2022-07-29T15:54:57.462Z,26.50
2022-07-29T15:57:27.325Z,26.50
2022-07-29T15:59:57.671Z,26.30
2022-07-29T16:02:27.278Z,26.30
2022-07-29T16:04:56.769Z,25.80
2022-07-29T16:07:31.763Z,26.10
2022-07-29T16:10:02.487Z,26.40
2022-07-29T16:12:32.561Z,26.30
2022-07-29T16:15:06.193Z,26.40
2022-07-29T16:17:39.600Z,26.20
2022-07-29T16:20:10.566Z,26.10
2022-07-29T16:22:45.410Z,25.80
2022-07-29T16:25:14.886Z,25.90
2022-07-29T16:27:44.473Z,25.30
2022-07-29T16:30:14.415Z,24.90
2022-07-29T16:32:44.057Z,24.30
2022-07-29T16:35:14.234Z,23.80
2022-07-29T16:37:45.142Z,23.20
2022-07-29T16:40:15.590Z,22.80
2022-07-29T16:42:46.961Z,22.70
2022-07-29T16:45:21.077Z,22.40
2022-07-29T16:47:51.371Z,22.20
2022-07-29T16:50:22.660Z,21.90
2022-07-29T16:52:53.708Z,21.60
2022-07-29T16:55:23.970Z,21.30
2022-07-29T16:57:54.304Z,21.20
2022-07-29T17:00:24.360Z,21.00
2022-07-29T17:02:53.809Z,20.90
2022-07-29T17:05:23.193Z,20.90
2022-07-29T17:07:54.304Z,21.00
2022-07-29T17:10:24.797Z,21.00
2022-07-29T17:12:57.861Z,21.10
2022-07-29T17:15:27.486Z,21.30
2022-07-29T17:17:56.973Z,21.60
2022-07-29T17:20:27.674Z,21.70
2022-07-29T17:22:58.797Z,21.70
2022-07-29T17:25:28.799Z,21.70
2022-07-29T17:28:00.943Z,21.70
2022-07-29T17:30:31.522Z,21.70
2022-07-29T17:33:00.908Z,21.60
2022-07-29T17:35:47.314Z,21.50
2022-07-29T17:38:18.883Z,21.20
2022-07-29T17:40:48.534Z,21.00
2022-07-29T17:43:18.452Z,20.90
2022-07-29T17:45:49.094Z,20.90
2022-07-29T17:48:21.420Z,20.60
2022-07-29T17:50:53.738Z,20.30
2022-07-29T17:53:25.390Z,20.20
2022-07-29T17:55:56.458Z,20.10
2022-07-29T17:58:26.717Z,19.90
2022-07-29T18:00:56.113Z,19.70
2022-07-29T18:03:26.432Z,19.50
2022-07-29T18:05:56.559Z,19.40
2022-07-29T18:08:27.518Z,19.20
2022-07-29T18:10:57.535Z,19.10
2022-07-29T18:13:27.746Z,19.00
2022-07-29T18:16:00.362Z,18.90
2022-07-29T18:18:31.038Z,18.70
2022-07-29T18:21:00.671Z,18.80
2022-07-29T18:23:31.619Z,18.60
2022-07-29T18:26:01.876Z,18.50
2022-07-29T18:28:32.975Z,18.40
2022-07-29T18:31:03.943Z,18.40
2022-07-29T18:33:33.454Z,18.30
2022-07-29T18:36:10.556Z,18.20
2022-07-29T18:38:43.721Z,18.10
2022-07-29T18:41:13.073Z,18.00
2022-07-29T18:43:43.280Z,18.00
2022-07-29T18:46:12.793Z,17.90
2022-07-29T18:48:42.584Z,17.90
2022-07-29T18:51:12.778Z,17.80
2022-07-29T18:53:43.678Z,17.80
2022-07-29T18:56:13.773Z,17.70
2022-07-29T18:58:43.330Z,17.70
2022-07-29T19:01:16.488Z,17.60
2022-07-29T19:03:47.030Z,17.50
2022-07-29T19:06:16.544Z,17.50
2022-07-29T19:08:47.446Z,17.50
2022-07-29T19:11:17.690Z,17.40
2022-07-29T19:13:47.301Z,17.40
2022-07-29T19:16:17.160Z,17.20
2022-07-29T19:18:47.630Z,17.20
2022-07-29T19:21:17.383Z,17.20
2022-07-29T19:24:00.049Z,17.20
2022-07-29T19:26:36.986Z,17.10
2022-07-29T19:29:06.618Z,17.00
2022-07-29T19:31:36.344Z,17.00
2022-07-29T19:36:36.783Z,16.90
2022-07-29T19:39:07.785Z,16.90
2022-07-29T19:41:38.323Z,16.90
2022-07-29T19:44:07.897Z,16.80
2022-07-29T19:46:37.900Z,16.70
2022-07-29T19:49:07.692Z,16.70
2022-07-29T19:51:37.474Z,16.70
2022-07-29T19:54:09.533Z,16.60
2022-07-29T19:56:42.199Z,16.60
2022-07-29T19:59:12.700Z,16.50
2022-07-29T20:01:42.520Z,16.50
2022-07-29T20:04:12.226Z,16.40
2022-07-29T20:06:42.098Z,16.30
2022-07-29T20:09:16.815Z,16.30
2022-07-29T20:11:50.659Z,16.30
2022-07-29T20:14:20.142Z,16.30
2022-07-29T20:16:49.481Z,16.30
2022-07-29T20:19:19.694Z,16.20
2022-07-29T20:21:49.159Z,16.20
2022-07-29T20:24:20.786Z,16.10
2022-07-29T20:26:51.086Z,16.20
2022-07-29T20:29:20.594Z,16.10
2022-07-29T20:31:52.222Z,16.00
2022-07-29T20:34:23.554Z,16.00
2022-07-29T20:36:53.123Z,16.00
2022-07-29T20:39:24.002Z,15.90
2022-07-29T20:41:54.192Z,15.90
2022-07-29T20:44:24.651Z,15.80
2022-07-29T20:46:54.045Z,15.90
2022-07-29T20:49:24.211Z,15.90
2022-07-29T20:51:53.842Z,15.80
2022-07-29T20:54:24.939Z,15.80
2022-07-29T20:56:55.078Z,15.70
2022-07-29T20:59:24.650Z,15.70
2022-07-29T21:01:55.849Z,15.70
2022-07-29T21:04:30.750Z,15.60
2022-07-29T21:07:02.446Z,15.60
2022-07-29T21:09:34.473Z,15.70
2022-07-29T21:12:04.678Z,15.60
2022-07-29T21:14:48.212Z,15.60
2022-07-29T21:17:21.232Z,15.60
2022-07-29T21:19:53.989Z,15.50
2022-07-29T21:22:23.351Z,15.60
2022-07-29T21:24:54.969Z,15.60
2022-07-29T21:27:41.338Z,15.60
2022-07-29T21:30:12.462Z,15.50
2022-07-29T21:32:42.080Z,15.50
2022-07-29T21:35:22.336Z,15.40
2022-07-29T21:38:01.813Z,15.30
2022-07-29T21:40:33.317Z,15.20
2022-07-29T21:43:02.873Z,15.10
2022-07-29T21:45:33.009Z,15.10
2022-07-29T21:48:02.304Z,15.10
2022-07-29T21:50:31.614Z,15.00
2022-07-29T21:53:01.730Z,15.00
2022-07-29T21:55:32.547Z,15.00
2022-07-29T21:58:04.213Z,14.90
2022-07-29T22:00:34.630Z,14.90
2022-07-29T22:03:06.074Z,14.70
2022-07-29T22:05:35.057Z,14.60
2022-07-29T22:08:05.386Z,14.50
2022-07-29T22:10:35.875Z,14.50
2022-07-29T22:13:07.309Z,14.50
2022-07-29T22:15:36.977Z,14.50
2022-07-29T22:18:08.544Z,14.50
2022-07-29T22:20:38.182Z,14.50
2022-07-29T22:23:11.636Z,14.50
2022-07-29T22:25:41.086Z,14.50
2022-07-29T22:28:12.568Z,14.40
2022-07-29T22:30:42.698Z,14.40
2022-07-29T22:33:17.381Z,14.50
2022-07-29T22:35:49.090Z,14.40
2022-07-29T22:38:19.174Z,14.40
2022-07-29T22:40:51.442Z,14.50
2022-07-29T22:43:22.421Z,14.50
2022-07-29T22:45:52.409Z,14.50
2022-07-29T22:48:21.913Z,14.50
2022-07-29T22:50:51.398Z,14.50
2022-07-29T22:53:22.400Z,14.60
2022-07-29T22:55:52.257Z,14.60
2022-07-29T22:58:23.489Z,14.70
2022-07-29T23:00:53.304Z,14.80
2022-07-29T23:03:23.511Z,14.80
2022-07-29T23:05:53.291Z,14.80
2022-07-29T23:08:22.811Z,14.90
2022-07-29T23:10:52.669Z,14.90
2022-07-29T23:13:23.542Z,14.90
2022-07-29T23:15:53.642Z,14.90
2022-07-29T23:18:23.052Z,14.90
2022-07-29T23:20:52.502Z,15.00
2022-07-29T23:23:22.583Z,14.90
2022-07-29T23:25:52.110Z,15.00
2022-07-29T23:28:23.182Z,14.90
2022-07-29T23:30:53.197Z,15.00
2022-07-29T23:33:22.909Z,14.90
2022-07-29T23:35:52.249Z,14.90
2022-07-29T23:38:22.763Z,14.90
2022-07-29T23:40:52.471Z,14.90
2022-07-29T23:43:23.282Z,14.90
2022-07-29T23:45:53.712Z,14.80
2022-07-29T23:48:23.317Z,14.80
2022-07-29T23:50:52.784Z,14.80
2022-07-29T23:53:22.788Z,14.80
2022-07-29T23:55:52.174Z,14.80
2022-07-29T23:58:23.171Z,14.80
